createdAt,value
2017-10-20T00:02:25.422Z,21.23
2017-10-20T00:04:54.025Z,20.67
2017-10-20T00:07:23.392Z,21.03
2017-10-20T00:09:51.345Z,20.90
2017-10-20T00:12:19.544Z,20.10
2017-10-20T00:14:47.769Z,23.17
2017-10-20T00:17:16.230Z,22.47
2017-10-20T00:19:45.468Z,20.80
2017-10-20T00:22:14.222Z,20.20
2017-10-20T00:24:43.364Z,20.07
2017-10-20T00:27:11.394Z,21.27
2017-10-20T00:29:40.233Z,20.57
2017-10-20T00:32:08.350Z,20.50
2017-10-20T00:34:37.657Z,20.47
2017-10-20T00:37:06.553Z,19.23
2017-10-20T00:39:35.791Z,19.23
2017-10-20T00:42:03.856Z,21.77
2017-10-20T00:44:32.139Z,20.00
2017-10-20T00:47:00.170Z,19.33
2017-10-20T00:49:29.012Z,21.40
2017-10-20T00:51:57.664Z,18.80
2017-10-20T00:54:26.358Z,19.37
2017-10-20T00:56:54.512Z,20.37
2017-10-20T00:59:23.629Z,19.57
2017-10-20T01:01:51.615Z,19.60
2017-10-20T01:04:20.205Z,20.60
2017-10-20T01:06:48.913Z,19.53
2017-10-20T01:09:17.494Z,18.93
2017-10-20T01:11:45.462Z,20.97
2017-10-20T01:14:14.589Z,21.67
2017-10-20T01:16:42.613Z,19.87
2017-10-20T01:19:10.780Z,19.40
2017-10-20T01:21:39.019Z,19.97
2017-10-20T01:24:07.717Z,20.07
2017-10-20T01:26:37.008Z,19.67
2017-10-20T01:29:05.178Z,20.10
2017-10-20T01:31:33.300Z,20.60
2017-10-20T01:34:01.472Z,18.90
2017-10-20T01:36:30.465Z,19.50
2017-10-20T01:38:59.022Z,19.27
2017-10-20T01:41:28.234Z,20.57
2017-10-20T01:43:56.518Z,19.73
2017-10-20T01:46:24.693Z,20.53
2017-10-20T01:48:52.745Z,19.87
2017-10-20T01:51:22.436Z,19.53
2017-10-20T01:53:50.653Z,19.73
2017-10-20T01:56:19.438Z,18.63
2017-10-20T01:58:48.105Z,21.00
2017-10-20T02:01:16.824Z,19.53
2017-10-20T02:03:44.800Z,21.20
2017-10-20T02:06:13.429Z,19.70
2017-10-20T02:08:42.077Z,19.73
2017-10-20T02:11:10.769Z,21.27
2017-10-20T02:13:40.316Z,22.47
2017-10-20T02:16:09.243Z,19.03
2017-10-20T02:18:37.477Z,19.63
2017-10-20T02:21:06.165Z,20.27
2017-10-20T02:23:35.342Z,21.27
2017-10-20T02:26:03.879Z,19.97
2017-10-20T02:28:33.405Z,20.80
2017-10-20T02:31:01.462Z,20.20
2017-10-20T02:33:30.349Z,19.53
2017-10-20T02:35:59.241Z,20.00
2017-10-20T02:38:28.040Z,19.67
2017-10-20T02:40:57.451Z,21.27
2017-10-20T02:43:26.090Z,20.63
2017-10-20T02:45:54.114Z,20.10
2017-10-20T02:48:22.160Z,19.63
2017-10-20T02:50:52.881Z,20.83
2017-10-20T02:53:21.114Z,20.80
2017-10-20T02:55:49.697Z,20.43
2017-10-20T02:58:18.257Z,20.77
2017-10-20T03:00:46.569Z,20.93
2017-10-20T03:03:14.652Z,20.13
2017-10-20T03:05:42.798Z,18.30
2017-10-20T03:08:10.841Z,19.80
2017-10-20T03:10:40.111Z,19.87
2017-10-20T03:13:08.818Z,21.40
2017-10-20T03:15:38.199Z,20.37
2017-10-20T03:18:06.352Z,20.63
2017-10-20T03:20:34.490Z,21.90
2017-10-20T03:23:03.272Z,21.70
2017-10-20T03:25:32.065Z,20.37
2017-10-20T03:28:01.554Z,19.97
2017-10-20T03:30:30.271Z,19.63
2017-10-20T03:32:58.341Z,19.00
2017-10-20T03:35:27.157Z,20.10
2017-10-20T03:37:55.940Z,21.00
2017-10-20T03:40:24.747Z,18.47
2017-10-20T03:42:53.350Z,18.60
2017-10-20T03:45:21.936Z,18.97
2017-10-20T03:47:49.936Z,19.37
2017-10-20T03:50:18.790Z,19.53
2017-10-20T03:52:47.317Z,17.10
2017-10-20T03:55:16.519Z,19.03
2017-10-20T03:57:45.937Z,18.00
2017-10-20T04:00:13.979Z,18.37
2017-10-20T04:02:42.029Z,17.17
2017-10-20T04:05:10.345Z,18.17
2017-10-20T04:07:39.730Z,16.20
2017-10-20T04:10:07.865Z,17.93
2017-10-20T04:12:36.673Z,18.60
2017-10-20T04:15:05.310Z,17.60
2017-10-20T04:17:33.469Z,16.37
2017-10-20T04:20:02.418Z,16.13
2017-10-20T04:22:30.410Z,17.30
2017-10-20T04:24:58.374Z,18.30
2017-10-20T04:27:26.567Z,18.00
2017-10-20T04:29:56.013Z,17.77
2017-10-20T04:32:24.085Z,17.83
2017-10-20T04:34:52.177Z,18.63
2017-10-20T04:37:20.174Z,18.00
2017-10-20T04:39:48.681Z,17.37
2017-10-20T04:42:18.208Z,18.87
2017-10-20T04:44:46.673Z,19.00
2017-10-20T04:47:16.120Z,17.37
2017-10-20T04:49:45.082Z,18.30
2017-10-20T04:52:13.835Z,19.67
2017-10-20T04:54:41.819Z,18.70
2017-10-20T04:57:10.314Z,16.00
2017-10-20T04:59:39.458Z,17.77
2017-10-20T05:02:07.536Z,16.93
2017-10-20T05:04:35.500Z,17.13
2017-10-20T05:07:03.549Z,15.73
2017-10-20T05:09:32.152Z,15.30
2017-10-20T05:12:00.713Z,15.60
2017-10-20T05:14:29.565Z,15.20
2017-10-20T05:16:58.325Z,19.33
2017-10-20T05:19:26.332Z,15.40
2017-10-20T05:21:54.471Z,15.43
2017-10-20T05:24:22.983Z,15.70
2017-10-20T05:26:51.511Z,14.60
2017-10-20T05:29:23.011Z,15.07
2017-10-20T05:31:56.478Z,15.80
2017-10-20T05:34:24.549Z,13.50
2017-10-20T05:36:52.535Z,14.90
2017-10-20T05:39:25.730Z,14.80
2017-10-20T05:41:54.515Z,16.47
2017-10-20T05:44:22.962Z,16.80
2017-10-20T05:47:05.648Z,15.30
2017-10-20T05:49:34.990Z,14.03
2017-10-20T05:52:03.079Z,16.60
2017-10-20T05:54:31.204Z,15.07
2017-10-20T05:57:00.427Z,14.27
2017-10-20T05:59:29.691Z,15.50
2017-10-20T06:01:58.403Z,14.07
2017-10-20T06:04:27.159Z,12.97
2017-10-20T06:06:55.164Z,11.20
2017-10-20T06:09:24.111Z,12.90
2017-10-20T06:11:52.114Z,12.27
2017-10-20T06:14:20.594Z,11.87
2017-10-20T06:16:49.927Z,11.67
2017-10-20T06:19:17.956Z,9.90
2017-10-20T06:21:45.970Z,8.87
2017-10-20T06:24:18.774Z,10.73
2017-10-20T06:26:46.939Z,10.80
2017-10-20T06:29:15.026Z,11.93
2017-10-20T06:31:43.158Z,9.90
2017-10-20T06:34:11.960Z,11.03
2017-10-20T06:36:40.756Z,13.03
2017-10-20T06:39:09.658Z,13.10
2017-10-20T06:41:37.808Z,11.07
2017-10-20T06:44:06.551Z,12.23
2017-10-20T06:46:35.059Z,12.07
2017-10-20T06:49:03.675Z,11.00
2017-10-20T06:51:32.815Z,12.10
2017-10-20T06:54:00.987Z,12.57
2017-10-20T06:56:29.087Z,11.67
2017-10-20T06:58:57.763Z,11.97
2017-10-20T07:01:26.311Z,11.80
2017-10-20T07:03:55.082Z,11.97
2017-10-20T07:06:23.870Z,10.93
2017-10-20T07:08:52.752Z,11.67
2017-10-20T07:11:22.006Z,12.13
2017-10-20T07:13:50.043Z,11.73
2017-10-20T07:16:18.687Z,12.40
2017-10-20T07:18:48.759Z,12.23
2017-10-20T07:21:16.928Z,11.20
2017-10-20T07:23:45.079Z,11.23
2017-10-20T07:26:13.979Z,12.20
2017-10-20T07:28:43.364Z,10.77
2017-10-20T07:31:11.747Z,11.27
2017-10-20T07:33:40.502Z,10.43
2017-10-20T07:36:09.180Z,10.73
2017-10-20T07:38:38.239Z,11.10
2017-10-20T07:41:07.027Z,11.70
2017-10-20T07:43:36.438Z,11.43
2017-10-20T07:46:05.435Z,11.17
2017-10-20T07:48:33.483Z,12.30
2017-10-20T07:51:03.573Z,10.43
2017-10-20T07:53:31.708Z,10.70
2017-10-20T07:55:59.735Z,11.17
2017-10-20T07:58:28.250Z,11.60
2017-10-20T08:00:57.174Z,12.20
2017-10-20T08:03:25.800Z,10.93
2017-10-20T08:05:53.842Z,12.70
2017-10-20T08:08:22.563Z,11.20
2017-10-20T08:10:50.552Z,11.03
2017-10-20T08:13:19.328Z,11.77
2017-10-20T08:15:48.266Z,10.53
2017-10-20T08:18:16.644Z,12.13
2017-10-20T08:20:44.667Z,11.73
2017-10-20T08:23:12.784Z,11.83
2017-10-20T08:25:40.811Z,11.67
2017-10-20T08:28:08.976Z,11.67
2017-10-20T08:30:37.240Z,11.23
2017-10-20T08:33:05.287Z,13.47
2017-10-20T08:35:34.054Z,11.27
2017-10-20T08:38:02.942Z,11.57
2017-10-20T08:40:31.641Z,12.43
2017-10-20T08:42:59.738Z,12.63
2017-10-20T08:45:28.712Z,10.63
2017-10-20T08:47:57.564Z,11.60
2017-10-20T08:50:27.668Z,11.27
2017-10-20T08:52:55.878Z,12.00
2017-10-20T08:55:24.647Z,10.70
2017-10-20T08:57:52.703Z,10.90
2017-10-20T09:00:21.444Z,11.90
2017-10-20T09:02:50.753Z,11.80
2017-10-20T09:05:19.876Z,11.40
2017-10-20T09:07:49.562Z,12.80
2017-10-20T09:10:17.743Z,12.33
2017-10-20T09:12:45.791Z,11.50
2017-10-20T09:15:14.643Z,12.20
2017-10-20T09:17:43.100Z,11.00
2017-10-20T09:20:11.214Z,11.70
2017-10-20T09:22:40.281Z,12.63
2017-10-20T09:25:08.385Z,11.10
2017-10-20T09:27:36.559Z,11.80
2017-10-20T09:30:04.811Z,12.03
2017-10-20T09:32:33.439Z,13.23
2017-10-20T09:35:02.858Z,11.50
2017-10-20T09:37:32.243Z,11.40
2017-10-20T09:40:01.620Z,13.23
2017-10-20T09:42:29.681Z,11.43
2017-10-20T09:44:57.769Z,11.97
2017-10-20T09:47:26.384Z,11.67
2017-10-20T09:49:55.596Z,10.40
2017-10-20T09:52:25.023Z,11.73
2017-10-20T09:54:53.065Z,10.43
2017-10-20T09:57:21.862Z,11.10
2017-10-20T09:59:50.735Z,11.80
2017-10-20T10:02:20.071Z,10.67
2017-10-20T10:04:48.871Z,10.50
2017-10-20T10:07:17.018Z,11.40
2017-10-20T10:09:46.275Z,12.27
2017-10-20T10:12:14.284Z,11.47
2017-10-20T10:14:43.142Z,11.47
2017-10-20T10:17:11.716Z,10.27
2017-10-20T10:19:39.770Z,10.07
2017-10-20T10:22:07.907Z,10.73
2017-10-20T10:24:37.184Z,11.33
2017-10-20T10:27:05.224Z,12.00
2017-10-20T10:42:24.759Z,10.40
2017-10-20T10:44:53.496Z,12.07
2017-10-20T10:47:21.524Z,10.90
2017-10-20T10:49:50.100Z,13.00
2017-10-20T10:52:19.443Z,11.83
2017-10-20T10:54:48.091Z,11.60
2017-10-20T10:57:16.895Z,12.10
2017-10-20T10:59:44.913Z,10.93
2017-10-20T11:02:12.904Z,12.07
2017-10-20T11:04:41.650Z,12.50
2017-10-20T11:07:21.899Z,11.80
2017-10-20T11:10:01.448Z,12.37
2017-10-20T11:12:45.596Z,11.93
2017-10-20T11:15:14.574Z,11.57
2017-10-20T11:17:42.600Z,12.23
2017-10-20T11:20:11.111Z,11.80
2017-10-20T11:22:39.999Z,11.43
2017-10-20T11:25:09.441Z,10.90
2017-10-20T11:27:37.994Z,10.40
2017-10-20T11:30:06.981Z,10.53
2017-10-20T11:32:35.759Z,11.70
2017-10-20T11:35:05.076Z,11.30
2017-10-20T11:37:34.663Z,12.70
2017-10-20T11:40:03.170Z,11.47
2017-10-20T11:42:32.108Z,12.50
2017-10-20T11:45:00.286Z,12.30
2017-10-20T11:47:28.288Z,14.00
2017-10-20T11:49:56.308Z,12.57
2017-10-20T11:52:25.010Z,12.47
2017-10-20T11:54:53.063Z,13.67
2017-10-20T11:57:21.095Z,13.33
2017-10-20T11:59:50.020Z,13.27
2017-10-20T12:02:17.992Z,13.50
2017-10-20T12:04:46.054Z,12.17
2017-10-20T12:07:14.208Z,12.83
2017-10-20T12:09:43.567Z,12.60
2017-10-20T12:12:11.588Z,12.57
2017-10-20T12:14:40.475Z,11.13
2017-10-20T12:17:09.235Z,10.40
2017-10-20T12:19:37.807Z,10.70
2017-10-20T12:22:05.904Z,10.47
2017-10-20T12:24:34.502Z,9.10
2017-10-20T12:27:03.944Z,8.77
2017-10-20T12:29:33.524Z,9.43
2017-10-20T12:32:02.295Z,9.30
2017-10-20T12:34:30.272Z,9.90
2017-10-20T12:36:58.348Z,8.10
2017-10-20T12:39:26.916Z,8.93
2017-10-20T12:41:55.458Z,9.07
2017-10-20T12:44:24.149Z,7.63
2017-10-20T12:46:52.260Z,7.47
2017-10-20T12:49:20.224Z,6.30
2017-10-20T12:51:48.913Z,6.30
2017-10-20T12:54:16.911Z,6.80
2017-10-20T12:56:47.274Z,6.97
2017-10-20T12:59:15.451Z,7.13
2017-10-20T13:01:43.977Z,6.73
2017-10-20T13:04:11.986Z,6.27
2017-10-20T13:06:40.652Z,7.47
2017-10-20T13:09:09.391Z,6.97
2017-10-20T13:11:37.927Z,7.37
2017-10-20T13:14:07.307Z,7.50
2017-10-20T13:16:35.915Z,7.00
2017-10-20T13:19:04.734Z,6.40
2017-10-20T13:21:32.848Z,6.07
2017-10-20T13:24:00.847Z,6.53
2017-10-20T13:26:30.399Z,6.10
2017-10-20T13:28:58.579Z,5.77
2017-10-20T13:31:26.607Z,6.60
2017-10-20T13:33:55.387Z,6.47
2017-10-20T13:36:23.471Z,6.40
2017-10-20T13:38:52.786Z,6.53
2017-10-20T13:41:21.574Z,5.70
2017-10-20T13:43:50.436Z,6.60
2017-10-20T13:46:18.638Z,6.40
2017-10-20T13:48:47.461Z,6.90
2017-10-20T13:51:15.610Z,7.37
2017-10-20T13:53:45.127Z,5.93
2017-10-20T13:56:13.185Z,6.27
2017-10-20T13:58:42.679Z,6.43
2017-10-20T14:01:11.428Z,6.57
2017-10-20T14:03:39.618Z,6.13
2017-10-20T14:06:07.843Z,6.53
2017-10-20T14:08:36.412Z,6.97
2017-10-20T14:11:05.108Z,5.90
2017-10-20T14:13:34.628Z,6.17
2017-10-20T14:16:02.643Z,7.27
2017-10-20T14:18:30.658Z,6.23
2017-10-20T14:20:59.546Z,6.07
2017-10-20T14:23:28.350Z,6.03
2017-10-20T14:25:56.376Z,5.60
2017-10-20T14:28:24.960Z,6.50
2017-10-20T14:30:53.518Z,7.00
2017-10-20T14:33:21.627Z,6.50
2017-10-20T14:35:49.814Z,6.50
2017-10-20T14:38:18.547Z,6.90
2017-10-20T14:40:47.287Z,8.80
2017-10-20T14:43:16.218Z,7.30
2017-10-20T14:45:44.786Z,6.00
2017-10-20T14:48:12.954Z,5.67
2017-10-20T14:50:41.840Z,5.90
2017-10-20T14:53:10.672Z,6.50
2017-10-20T14:55:38.648Z,6.13
2017-10-20T14:58:07.331Z,7.67
2017-10-20T15:00:35.391Z,5.90
2017-10-20T15:03:03.402Z,5.73
2017-10-20T15:05:31.628Z,5.57
2017-10-20T15:07:59.706Z,5.93
2017-10-20T15:10:27.720Z,6.57
2017-10-20T15:12:56.411Z,6.07
2017-10-20T15:15:24.916Z,5.50
2017-10-20T15:17:54.235Z,6.33
2017-10-20T15:20:23.583Z,5.70
2017-10-20T15:22:51.602Z,6.20
2017-10-20T15:25:20.355Z,5.70
2017-10-20T15:27:48.510Z,5.80
2017-10-20T15:30:17.286Z,6.57
2017-10-20T15:32:45.846Z,6.30
2017-10-20T15:35:14.712Z,6.07
2017-10-20T15:37:42.775Z,6.20
2017-10-20T15:40:11.332Z,6.37
2017-10-20T15:42:40.079Z,7.50
2017-10-20T15:45:09.382Z,6.17
2017-10-20T15:47:38.822Z,6.10
2017-10-20T15:50:07.154Z,5.77
2017-10-20T15:52:35.891Z,6.50
2017-10-20T15:55:03.891Z,6.57
2017-10-20T15:57:32.614Z,5.70
2017-10-20T16:00:01.955Z,6.73
2017-10-20T16:02:31.354Z,5.67
2017-10-20T16:04:59.427Z,5.97
2017-10-20T16:07:27.436Z,6.33
2017-10-20T16:09:55.472Z,6.40
2017-10-20T16:12:24.139Z,5.77
2017-10-20T16:14:52.776Z,5.57
2017-10-20T16:17:21.518Z,5.40
2017-10-20T16:19:50.239Z,6.60
2017-10-20T16:22:18.267Z,6.20
2017-10-20T16:24:46.286Z,6.13
2017-10-20T16:27:14.955Z,6.40
2017-10-20T16:29:43.492Z,5.40
2017-10-20T16:32:12.334Z,6.13
2017-10-20T16:34:41.217Z,5.80
2017-10-20T16:37:09.219Z,5.80
2017-10-20T16:39:37.180Z,5.63
2017-10-20T16:42:05.955Z,5.50
2017-10-20T16:44:34.551Z,6.80
2017-10-20T16:47:03.322Z,6.57
2017-10-20T16:49:31.990Z,6.10
2017-10-20T16:52:00.189Z,7.17
2017-10-20T16:54:28.185Z,6.27
2017-10-20T16:56:56.291Z,6.27
2017-10-20T16:59:25.551Z,6.50
2017-10-20T17:01:54.319Z,6.97
2017-10-20T17:04:22.939Z,7.67
2017-10-20T17:06:51.000Z,6.57
2017-10-20T17:09:18.992Z,6.70
2017-10-20T17:11:47.194Z,7.50
2017-10-20T17:14:16.018Z,8.40
2017-10-20T17:16:44.103Z,6.90
2017-10-20T17:19:12.300Z,6.90
2017-10-20T17:21:40.742Z,8.20
2017-10-20T17:24:08.852Z,7.17
2017-10-20T17:26:37.063Z,7.20
2017-10-20T17:29:06.378Z,7.40
2017-10-20T17:31:35.088Z,8.17
2017-10-20T17:34:03.219Z,7.83
2017-10-20T17:36:32.495Z,7.43
2017-10-20T17:39:00.550Z,5.97
2017-10-20T17:41:28.656Z,8.40
2017-10-20T17:43:57.352Z,7.17
2017-10-20T17:46:26.552Z,6.60
2017-10-20T17:48:56.068Z,7.43
2017-10-20T17:51:25.256Z,8.07
2017-10-20T17:53:54.172Z,8.03
2017-10-20T17:56:22.291Z,8.03
2017-10-20T17:58:50.288Z,7.80
2017-10-20T18:01:19.499Z,7.13
2017-10-20T18:03:48.823Z,9.30
2017-10-20T18:06:17.282Z,9.00
2017-10-20T18:08:46.079Z,9.50
2017-10-20T18:11:15.022Z,8.87
2017-10-20T18:13:43.487Z,9.07
2017-10-20T18:16:11.904Z,7.47
2017-10-20T18:18:40.738Z,7.50
2017-10-20T18:21:09.350Z,7.80
2017-10-20T18:23:37.390Z,8.47
2017-10-20T18:26:05.525Z,7.13
2017-10-20T18:28:33.979Z,8.30
2017-10-20T18:31:02.675Z,8.93
2017-10-20T18:33:31.539Z,8.57
2017-10-20T18:36:00.244Z,8.47
2017-10-20T18:38:29.667Z,8.07
2017-10-20T18:40:57.838Z,7.60
2017-10-20T18:43:25.899Z,6.90
2017-10-20T18:45:54.482Z,7.60
2017-10-20T18:48:22.586Z,9.07
2017-10-20T18:50:51.211Z,8.40
2017-10-20T18:53:19.656Z,8.30
2017-10-20T18:55:47.928Z,8.53
2017-10-20T18:58:15.896Z,8.13
2017-10-20T19:00:44.661Z,8.93
2017-10-20T19:03:13.104Z,9.20
2017-10-20T19:05:42.648Z,8.50
2017-10-20T19:08:10.959Z,8.50
2017-10-20T19:10:39.107Z,7.87
2017-10-20T19:13:07.287Z,7.77
2017-10-20T19:15:35.947Z,8.60
2017-10-20T19:18:04.064Z,8.23
2017-10-20T19:20:32.659Z,7.53
2017-10-20T19:23:01.052Z,8.53
2017-10-20T19:25:29.950Z,7.10
2017-10-20T19:27:58.785Z,7.40
2017-10-20T19:30:27.346Z,7.27
2017-10-20T19:32:56.276Z,7.80
2017-10-20T19:35:25.053Z,8.57
2017-10-20T19:37:53.596Z,8.07
2017-10-20T19:40:22.443Z,7.50
2017-10-20T19:42:50.459Z,8.00
2017-10-20T19:45:19.195Z,7.80
2017-10-20T19:47:47.879Z,8.13
2017-10-20T19:50:17.551Z,8.67
2017-10-20T19:52:47.551Z,8.60
2017-10-20T19:55:16.411Z,8.20
2017-10-20T19:57:45.092Z,7.40
2017-10-20T20:00:13.272Z,8.90
2017-10-20T20:02:43.302Z,8.03
2017-10-20T20:05:12.936Z,8.20
2017-10-20T20:07:42.852Z,8.00
2017-10-20T20:10:11.631Z,8.20
2017-10-20T20:12:39.848Z,8.90
2017-10-20T20:15:07.959Z,8.07
2017-10-20T20:17:38.248Z,8.13
2017-10-20T20:20:07.160Z,8.73
2017-10-20T20:22:36.556Z,7.97
2017-10-20T20:25:06.060Z,8.13
2017-10-20T20:27:35.019Z,8.70
2017-10-20T20:30:03.940Z,8.60
2017-10-20T20:32:34.263Z,8.13
2017-10-20T20:35:03.392Z,8.77
2017-10-20T20:37:32.755Z,9.80
2017-10-20T20:40:02.084Z,7.97
2017-10-20T20:42:30.722Z,8.10
2017-10-20T20:44:59.898Z,7.70
2017-10-20T20:47:28.744Z,7.93
2017-10-20T20:49:57.507Z,8.70
2017-10-20T20:52:26.640Z,8.73
2017-10-20T20:54:56.750Z,8.80
2017-10-20T20:57:26.099Z,9.43
2017-10-20T20:59:55.599Z,10.10
2017-10-20T21:02:24.103Z,10.63
2017-10-20T21:04:54.279Z,7.97
2017-10-20T21:07:23.813Z,9.60
2017-10-20T21:09:51.971Z,9.90
2017-10-20T21:12:21.108Z,9.37
2017-10-20T21:14:50.260Z,10.33
2017-10-20T21:17:19.142Z,9.57
2017-10-20T21:19:50.195Z,10.30
2017-10-20T21:22:18.958Z,9.73
2017-10-20T21:24:49.238Z,10.10
2017-10-20T21:27:17.810Z,9.57
2017-10-20T21:29:46.096Z,9.67
2017-10-20T21:32:14.344Z,8.93
2017-10-20T21:34:43.882Z,10.60
2017-10-20T21:37:12.411Z,11.30
2017-10-20T21:39:41.949Z,10.63
2017-10-20T21:42:10.147Z,9.57
2017-10-20T21:44:39.194Z,9.93
2017-10-20T21:47:08.751Z,10.67
2017-10-20T21:49:39.435Z,9.90
2017-10-20T21:52:09.264Z,9.37
2017-10-20T21:54:38.426Z,9.90
2017-10-20T21:57:09.323Z,9.17
2017-10-20T21:59:39.698Z,9.13
2017-10-20T22:02:08.983Z,9.80
2017-10-20T22:04:39.318Z,8.53
2017-10-20T22:07:09.380Z,10.77
2017-10-20T22:09:38.160Z,9.80
2017-10-20T22:12:06.659Z,10.13
2017-10-20T22:14:34.627Z,9.10
2017-10-20T22:17:03.140Z,8.30
2017-10-20T22:19:32.649Z,9.50
2017-10-20T22:22:03.011Z,11.57
2017-10-20T22:24:33.912Z,11.47
2017-10-20T22:27:02.892Z,11.10
2017-10-20T22:29:32.468Z,10.90
2017-10-20T22:32:01.198Z,10.57
2017-10-20T22:34:29.711Z,10.73
2017-10-20T22:37:00.059Z,10.57
2017-10-20T22:39:29.000Z,10.50
2017-10-20T22:41:59.479Z,9.30
2017-10-20T22:44:28.558Z,10.00
2017-10-20T22:46:57.214Z,10.63
2017-10-20T22:49:25.612Z,8.90
2017-10-20T22:51:57.016Z,9.63
2017-10-20T22:54:26.483Z,8.40
2017-10-20T22:56:54.705Z,8.27
2017-10-20T22:59:25.675Z,9.60
2017-10-20T23:01:53.708Z,9.20
2017-10-20T23:04:23.742Z,8.23
2017-10-20T23:06:52.328Z,9.80
2017-10-20T23:09:22.170Z,10.50
2017-10-20T23:11:50.958Z,10.80
2017-10-20T23:14:21.102Z,9.93
2017-10-20T23:16:50.130Z,9.07
2017-10-20T23:19:18.140Z,9.60
2017-10-20T23:21:47.304Z,10.17
2017-10-20T23:24:15.491Z,9.43
2017-10-20T23:26:44.424Z,9.83
2017-10-20T23:29:13.179Z,10.03
2017-10-20T23:31:41.326Z,9.40
2017-10-20T23:34:09.919Z,9.40
2017-10-20T23:36:40.878Z,8.80
2017-10-20T23:39:11.536Z,8.63
2017-10-20T23:41:40.144Z,10.20
2017-10-20T23:44:09.118Z,8.30
2017-10-20T23:46:38.414Z,8.77
2017-10-20T23:49:06.560Z,8.70
2017-10-20T23:51:36.098Z,9.30
2017-10-20T23:54:06.242Z,9.90
2017-10-20T23:56:35.495Z,8.93
2017-10-20T23:59:05.756Z,10.13
